KSTL/STL METAR and TAF weather

Enter ICAO airport designator
Station Type Date Time Source
KSTL METAR 2019/05/23 19:51 UTC NOAA

KSTL 231951Z 33006KT 10SM FEW021 SCT130 BKN250 26/19 A3009 RMK AO2 SLP178 T02560194


Station Type Date Time Source
KSTL Decoded METAR 2019/05/23 19:51 UTC NOAA

LAMBERT-ST LOUIS INTERNATIONAL AIRPORT , MO, United States (KSTL) 38-45N 90-22W 171M
May 23, 2019 - 03:51 PM EDT / 2019.05.23 1951 UTC
Wind: from the NNW (330 degrees) at 7 MPH (6 KT):0
Visibility: 10 mile(s):0
Sky conditions: mostly cloudy
Temperature: 78.1 F (25.6 C)
Dew Point: 66.9 F (19.4 C)
Relative Humidity: 68%
Pressure (altimeter): 30.09 in. Hg (1018 hPa)
ob: KSTL 231951Z 33006KT 10SM FEW021 SCT130 BKN250 26/19 A3009 RMK AO2 SLP178 T02560194
cycle: 20

Station Type Date Time Source
KSTL TAF 2019/05/23 18:24 UTC NOAA

TAF KSTL 231722Z 2318/2424 32005KT P6SM SCT025 BKN060
FM231900 27005KT P6SM BKN060
FM240600 12005KT P6SM BKN035
FM241200 17005KT P6SM SCT150
FM242100 19010G16KT P6SM FEW200

Example: see airport list